Skip Navigation Links
NOAA logo - Click to go to the NOAA homepage
NOAA's National Weather Service
Alaska Aviation Weather Unit
  NWS logo - Click to go to the NWS homepage
Left Navbar Graphic     02 AKDT = 10 GMT

   
NOAA is celebrating 200 years of science, service, and stewardship. Visit the NOAA 200th celebration Web site to learn more.
USA.gov is the U.S. Government's official Web portal to all Federal, state and local government Web resources and services.
Facebook
NWS on Facebook

AAWU Home :: Display TAF Add Bookmark
PABA 270452Z AUTO 25009KT 10SM CLR M22/M24 A3010=

PABA 270552Z AUTO 27013KT 10SM OVC060 M21/M23 A3011=

PABA 270652Z AUTO 24007KT 10SM BKN055 M23/M25 A3012=

PABA 270852Z AUTO 26010KT 10SM CLR M23/M25 A3014=

PABA 270952Z AUTO 19004KT 10SM BKN037 OVC050 M23/M26 A3015=


NOAA's National Weather Service
Alaska Aviation Weather Unit
6930 Sand Lake Road
Anchorage, AK 99502-1845
Disclaimer
Credits
Glossary
Privacy Policy
About Us
Career Opportunities
Contact AAWU Internet Services Site last modified: April, 17th 2012